sensor_id;sensor_type;location;lat;lon;timestamp;temperature;humidity
49503;DHT22;35409;48.776;9.204;2023-07-29T00:01:36;16.40;99.90
49503;DHT22;35409;48.776;9.204;2023-07-29T00:04:02;16.40;99.90
49503;DHT22;35409;48.776;9.204;2023-07-29T00:06:27;16.40;99.90
49503;DHT22;35409;48.776;9.204;2023-07-29T00:08:53;16.50;99.90
49503;DHT22;35409;48.776;9.204;2023-07-29T00:11:19;16.50;99.90
49503;DHT22;35409;48.776;9.204;2023-07-29T00:13:44;16.60;99.90
49503;DHT22;35409;48.776;9.204;2023-07-29T00:16:10;16.60;99.90
49503;DHT22;35409;48.776;9.204;2023-07-29T00:18:35;16.60;99.90
49503;DHT22;35409;48.776;9.204;2023-07-29T00:21:01;16.60;99.90
49503;DHT22;35409;48.776;9.204;2023-07-29T00:23:27;16.60;99.90
49503;DHT22;35409;48.776;9.204;2023-07-29T00:25:53;16.60;99.90
49503;DHT22;35409;48.776;9.204;2023-07-29T00:28:18;16.60;99.90
49503;DHT22;35409;48.776;9.204;2023-07-29T00:30:44;16.60;99.90
49503;DHT22;35409;48.776;9.204;2023-07-29T00:33:09;16.60;99.90
49503;DHT22;35409;48.776;9.204;2023-07-29T00:35:35;16.70;99.90
49503;DHT22;35409;48.776;9.204;2023-07-29T00:38:01;16.70;99.90
49503;DHT22;35409;48.776;9.204;2023-07-29T00:40:28;16.70;99.90
49503;DHT22;35409;48.776;9.204;2023-07-29T00:42:54;16.70;99.90
49503;DHT22;35409;48.776;9.204;2023-07-29T00:45:20;16.80;99.90
49503;DHT22;35409;48.776;9.204;2023-07-29T00:47:45;16.80;99.90
49503;DHT22;35409;48.776;9.204;2023-07-29T00:50:12;16.80;99.90
49503;DHT22;35409;48.776;9.204;2023-07-29T00:52:38;16.80;99.90
49503;DHT22;35409;48.776;9.204;2023-07-29T00:55:05;16.80;99.90
49503;DHT22;35409;48.776;9.204;2023-07-29T00:57:31;16.80;99.90
49503;DHT22;35409;48.776;9.204;2023-07-29T00:59:58;16.80;99.90
49503;DHT22;35409;48.776;9.204;2023-07-29T01:02:24;16.90;99.90
49503;DHT22;35409;48.776;9.204;2023-07-29T01:04:57;16.90;99.90
49503;DHT22;35409;48.776;9.204;2023-07-29T01:07:30;16.80;99.90
49503;DHT22;35409;48.776;9.204;2023-07-29T01:10:07;16.80;99.90
49503;DHT22;35409;48.776;9.204;2023-07-29T01:12:49;16.70;99.90
49503;DHT22;35409;48.776;9.204;2023-07-29T01:15:24;16.70;99.90
49503;DHT22;35409;48.776;9.204;2023-07-29T01:17:56;16.70;99.90
49503;DHT22;35409;48.776;9.204;2023-07-29T01:20:25;16.60;99.90
49503;DHT22;35409;48.776;9.204;2023-07-29T01:22:51;16.70;99.90
49503;DHT22;35409;48.776;9.204;2023-07-29T01:25:17;16.70;99.90
49503;DHT22;35409;48.776;9.204;2023-07-29T01:27:48;16.70;99.90
49503;DHT22;35409;48.776;9.204;2023-07-29T01:30:17;16.60;99.90
49503;DHT22;35409;48.776;9.204;2023-07-29T01:32:50;16.70;99.90
49503;DHT22;35409;48.776;9.204;2023-07-29T01:35:33;16.70;99.90
49503;DHT22;35409;48.776;9.204;2023-07-29T01:38:30;16.70;99.90
49503;DHT22;35409;48.776;9.204;2023-07-29T01:41:03;16.70;99.90
49503;DHT22;35409;48.776;9.204;2023-07-29T01:43:29;16.70;99.90
49503;DHT22;35409;48.776;9.204;2023-07-29T01:45:54;16.70;99.90
49503;DHT22;35409;48.776;9.204;2023-07-29T01:48:20;16.70;99.90
49503;DHT22;35409;48.776;9.204;2023-07-29T01:50:45;16.70;99.90
49503;DHT22;35409;48.776;9.204;2023-07-29T01:53:11;16.80;99.90
49503;DHT22;35409;48.776;9.204;2023-07-29T01:55:37;16.80;99.90
49503;DHT22;35409;48.776;9.204;2023-07-29T01:58:02;16.80;99.90
49503;DHT22;35409;48.776;9.204;2023-07-29T02:00:28;16.80;99.90
49503;DHT22;35409;48.776;9.204;2023-07-29T02:02:53;16.80;99.90
49503;DHT22;35409;48.776;9.204;2023-07-29T02:05:19;16.80;99.90
49503;DHT22;35409;48.776;9.204;2023-07-29T02:07:44;16.80;99.90
49503;DHT22;35409;48.776;9.204;2023-07-29T02:10:10;16.80;99.90
49503;DHT22;35409;48.776;9.204;2023-07-29T02:12:35;16.80;99.90
49503;DHT22;35409;48.776;9.204;2023-07-29T02:15:01;16.90;99.90
49503;DHT22;35409;48.776;9.204;2023-07-29T02:17:27;16.80;99.90
49503;DHT22;35409;48.776;9.204;2023-07-29T02:19:52;16.80;99.90
49503;DHT22;35409;48.776;9.204;2023-07-29T02:22:18;16.70;99.90
49503;DHT22;35409;48.776;9.204;2023-07-29T02:24:44;16.70;99.90
49503;DHT22;35409;48.776;9.204;2023-07-29T02:27:10;16.70;99.90
49503;DHT22;35409;48.776;9.204;2023-07-29T02:29:36;16.60;99.90
49503;DHT22;35409;48.776;9.204;2023-07-29T02:32:02;16.60;99.90
49503;DHT22;35409;48.776;9.204;2023-07-29T02:34:29;16.50;99.90
49503;DHT22;35409;48.776;9.204;2023-07-29T02:36:54;16.50;99.90
49503;DHT22;35409;48.776;9.204;2023-07-29T02:39:20;16.50;99.90
49503;DHT22;35409;48.776;9.204;2023-07-29T02:41:46;16.50;99.90
49503;DHT22;35409;48.776;9.204;2023-07-29T02:44:11;16.50;99.90
49503;DHT22;35409;48.776;9.204;2023-07-29T02:46:37;16.50;99.90
49503;DHT22;35409;48.776;9.204;2023-07-29T02:49:03;16.50;99.90
49503;DHT22;35409;48.776;9.204;2023-07-29T02:51:30;16.50;99.90
49503;DHT22;35409;48.776;9.204;2023-07-29T02:53:55;16.40;99.90
49503;DHT22;35409;48.776;9.204;2023-07-29T02:56:21;16.50;99.90
49503;DHT22;35409;48.776;9.204;2023-07-29T02:58:47;16.50;99.90
49503;DHT22;35409;48.776;9.204;2023-07-29T03:01:12;16.50;99.90
49503;DHT22;35409;48.776;9.204;2023-07-29T03:03:39;16.50;99.90
49503;DHT22;35409;48.776;9.204;2023-07-29T03:06:07;16.40;99.90
49503;DHT22;35409;48.776;9.204;2023-07-29T03:08:33;16.50;99.90
49503;DHT22;35409;48.776;9.204;2023-07-29T03:11:05;16.40;99.90
49503;DHT22;35409;48.776;9.204;2023-07-29T03:13:31;16.40;99.90
49503;DHT22;35409;48.776;9.204;2023-07-29T03:16:05;16.40;99.90
49503;DHT22;35409;48.776;9.204;2023-07-29T03:18:31;16.40;99.90
49503;DHT22;35409;48.776;9.204;2023-07-29T03:20:56;16.40;99.90
49503;DHT22;35409;48.776;9.204;2023-07-29T03:23:22;16.40;99.90
49503;DHT22;35409;48.776;9.204;2023-07-29T03:25:50;16.40;99.90
49503;DHT22;35409;48.776;9.204;2023-07-29T03:28:25;16.40;99.90
49503;DHT22;35409;48.776;9.204;2023-07-29T03:30:53;16.40;99.90
49503;DHT22;35409;48.776;9.204;2023-07-29T03:33:18;16.40;99.90
49503;DHT22;35409;48.776;9.204;2023-07-29T03:35:44;16.40;99.90
49503;DHT22;35409;48.776;9.204;2023-07-29T03:38:11;16.40;99.90
49503;DHT22;35409;48.776;9.204;2023-07-29T03:40:37;16.40;99.90
49503;DHT22;35409;48.776;9.204;2023-07-29T03:43:04;16.40;99.90
49503;DHT22;35409;48.776;9.204;2023-07-29T03:45:29;16.50;99.90
49503;DHT22;35409;48.776;9.204;2023-07-29T03:47:55;16.50;99.90
49503;DHT22;35409;48.776;9.204;2023-07-29T03:50:20;16.50;99.90
49503;DHT22;35409;48.776;9.204;2023-07-29T03:52:46;16.50;99.90
49503;DHT22;35409;48.776;9.204;2023-07-29T03:55:12;16.60;99.90
49503;DHT22;35409;48.776;9.204;2023-07-29T03:57:37;16.60;99.90
49503;DHT22;35409;48.776;9.204;2023-07-29T04:00:03;16.70;99.90
49503;DHT22;35409;48.776;9.204;2023-07-29T04:02:29;16.70;99.90
49503;DHT22;35409;48.776;9.204;2023-07-29T04:04:55;16.70;99.90
49503;DHT22;35409;48.776;9.204;2023-07-29T04:07:20;16.70;99.90
49503;DHT22;35409;48.776;9.204;2023-07-29T04:09:46;16.60;99.90
49503;DHT22;35409;48.776;9.204;2023-07-29T04:12:11;16.60;99.90
49503;DHT22;35409;48.776;9.204;2023-07-29T04:14:37;16.60;99.90
49503;DHT22;35409;48.776;9.204;2023-07-29T04:17:03;16.60;99.90
49503;DHT22;35409;48.776;9.204;2023-07-29T04:19:28;16.60;99.90
49503;DHT22;35409;48.776;9.204;2023-07-29T04:21:54;16.60;99.90
49503;DHT22;35409;48.776;9.204;2023-07-29T04:24:19;16.60;99.90
49503;DHT22;35409;48.776;9.204;2023-07-29T04:26:45;16.60;99.90
49503;DHT22;35409;48.776;9.204;2023-07-29T04:29:11;16.60;99.90
49503;DHT22;35409;48.776;9.204;2023-07-29T04:31:37;16.60;99.90
49503;DHT22;35409;48.776;9.204;2023-07-29T04:34:04;16.60;99.90
49503;DHT22;35409;48.776;9.204;2023-07-29T04:36:30;16.60;99.90
49503;DHT22;35409;48.776;9.204;2023-07-29T04:38:56;16.60;99.90
49503;DHT22;35409;48.776;9.204;2023-07-29T04:41:21;16.60;99.90
49503;DHT22;35409;48.776;9.204;2023-07-29T04:43:47;16.60;99.90
49503;DHT22;35409;48.776;9.204;2023-07-29T04:46:15;16.60;99.90
49503;DHT22;35409;48.776;9.204;2023-07-29T04:48:40;16.60;99.90
49503;DHT22;35409;48.776;9.204;2023-07-29T04:51:06;16.60;99.90
49503;DHT22;35409;48.776;9.204;2023-07-29T04:53:31;16.60;99.90
49503;DHT22;35409;48.776;9.204;2023-07-29T04:55:57;16.60;99.90
49503;DHT22;35409;48.776;9.204;2023-07-29T04:58:22;16.60;99.90
49503;DHT22;35409;48.776;9.204;2023-07-29T05:00:48;16.60;99.90
49503;DHT22;35409;48.776;9.204;2023-07-29T05:03:14;16.60;99.90
49503;DHT22;35409;48.776;9.204;2023-07-29T05:05:39;16.70;99.90
49503;DHT22;35409;48.776;9.204;2023-07-29T05:08:05;16.70;99.90
49503;DHT22;35409;48.776;9.204;2023-07-29T05:10:30;16.70;99.90
49503;DHT22;35409;48.776;9.204;2023-07-29T05:12:56;16.70;99.90
49503;DHT22;35409;48.776;9.204;2023-07-29T05:15:21;16.70;99.90
49503;DHT22;35409;48.776;9.204;2023-07-29T05:17:47;16.80;99.90
49503;DHT22;35409;48.776;9.204;2023-07-29T05:20:12;16.80;99.90
49503;DHT22;35409;48.776;9.204;2023-07-29T05:22:38;16.90;99.90
49503;DHT22;35409;48.776;9.204;2023-07-29T05:25:04;16.90;99.90
49503;DHT22;35409;48.776;9.204;2023-07-29T05:27:30;17.00;99.90
49503;DHT22;35409;48.776;9.204;2023-07-29T05:29:55;17.00;99.90
49503;DHT22;35409;48.776;9.204;2023-07-29T05:32:21;17.00;99.90
49503;DHT22;35409;48.776;9.204;2023-07-29T05:34:46;17.10;99.90
49503;DHT22;35409;48.776;9.204;2023-07-29T05:37:12;17.10;99.90
49503;DHT22;35409;48.776;9.204;2023-07-29T05:39:38;17.10;99.90
49503;DHT22;35409;48.776;9.204;2023-07-29T05:42:04;17.10;99.90
49503;DHT22;35409;48.776;9.204;2023-07-29T05:44:29;17.20;99.90
49503;DHT22;35409;48.776;9.204;2023-07-29T05:46:57;17.30;99.90
49503;DHT22;35409;48.776;9.204;2023-07-29T05:49:23;17.30;99.90
49503;DHT22;35409;48.776;9.204;2023-07-29T05:51:49;17.30;99.90
49503;DHT22;35409;48.776;9.204;2023-07-29T05:54:18;17.40;99.90
49503;DHT22;35409;48.776;9.204;2023-07-29T05:56:44;17.50;99.90
49503;DHT22;35409;48.776;9.204;2023-07-29T05:59:09;17.60;99.90
49503;DHT22;35409;48.776;9.204;2023-07-29T06:01:35;17.70;99.90
49503;DHT22;35409;48.776;9.204;2023-07-29T06:04:01;17.80;99.90
49503;DHT22;35409;48.776;9.204;2023-07-29T06:06:26;17.80;99.90
49503;DHT22;35409;48.776;9.204;2023-07-29T06:08:52;18.00;99.90
49503;DHT22;35409;48.776;9.204;2023-07-29T06:11:18;18.10;99.90
49503;DHT22;35409;48.776;9.204;2023-07-29T06:13:43;18.30;99.90
49503;DHT22;35409;48.776;9.204;2023-07-29T06:16:09;18.40;99.90
49503;DHT22;35409;48.776;9.204;2023-07-29T06:18:34;18.40;99.90
49503;DHT22;35409;48.776;9.204;2023-07-29T06:21:00;18.50;99.90
49503;DHT22;35409;48.776;9.204;2023-07-29T06:23:26;18.50;99.90
49503;DHT22;35409;48.776;9.204;2023-07-29T06:25:51;18.60;99.90
49503;DHT22;35409;48.776;9.204;2023-07-29T06:28:17;18.70;99.90
49503;DHT22;35409;48.776;9.204;2023-07-29T06:30:42;18.70;99.90
49503;DHT22;35409;48.776;9.204;2023-07-29T06:33:08;18.80;99.90
49503;DHT22;35409;48.776;9.204;2023-07-29T06:35:34;18.90;99.90
49503;DHT22;35409;48.776;9.204;2023-07-29T06:38:00;18.90;99.90
49503;DHT22;35409;48.776;9.204;2023-07-29T06:40:25;18.90;99.90
49503;DHT22;35409;48.776;9.204;2023-07-29T06:42:51;18.90;99.90
49503;DHT22;35409;48.776;9.204;2023-07-29T06:45:17;18.90;99.90
49503;DHT22;35409;48.776;9.204;2023-07-29T06:47:42;18.80;99.90
49503;DHT22;35409;48.776;9.204;2023-07-29T06:50:08;18.80;99.90
49503;DHT22;35409;48.776;9.204;2023-07-29T06:52:34;18.70;99.90
49503;DHT22;35409;48.776;9.204;2023-07-29T06:54:59;18.80;99.90
49503;DHT22;35409;48.776;9.204;2023-07-29T06:57:25;18.80;99.90
49503;DHT22;35409;48.776;9.204;2023-07-29T06:59:50;18.80;99.90
49503;DHT22;35409;48.776;9.204;2023-07-29T07:02:16;18.80;99.90
49503;DHT22;35409;48.776;9.204;2023-07-29T07:04:42;18.80;99.90
49503;DHT22;35409;48.776;9.204;2023-07-29T07:07:07;18.80;99.90
49503;DHT22;35409;48.776;9.204;2023-07-29T07:09:33;18.70;99.90
49503;DHT22;35409;48.776;9.204;2023-07-29T07:11:58;18.60;99.90
49503;DHT22;35409;48.776;9.204;2023-07-29T07:14:24;18.50;99.90
49503;DHT22;35409;48.776;9.204;2023-07-29T07:16:50;18.40;99.90
49503;DHT22;35409;48.776;9.204;2023-07-29T07:19:15;18.40;99.90
49503;DHT22;35409;48.776;9.204;2023-07-29T07:21:41;18.30;99.90
49503;DHT22;35409;48.776;9.204;2023-07-29T07:24:06;18.30;99.90
49503;DHT22;35409;48.776;9.204;2023-07-29T07:26:32;18.20;99.90
49503;DHT22;35409;48.776;9.204;2023-07-29T07:28:58;18.20;99.90
49503;DHT22;35409;48.776;9.204;2023-07-29T07:31:24;18.20;99.90
49503;DHT22;35409;48.776;9.204;2023-07-29T07:33:49;18.20;99.90
49503;DHT22;35409;48.776;9.204;2023-07-29T07:36:15;18.20;99.90
49503;DHT22;35409;48.776;9.204;2023-07-29T07:38:41;18.20;99.90
49503;DHT22;35409;48.776;9.204;2023-07-29T07:41:07;18.30;99.90
49503;DHT22;35409;48.776;9.204;2023-07-29T07:43:32;18.40;99.90
49503;DHT22;35409;48.776;9.204;2023-07-29T07:45:59;18.40;99.90
49503;DHT22;35409;48.776;9.204;2023-07-29T07:48:26;18.50;99.90
49503;DHT22;35409;48.776;9.204;2023-07-29T07:50:51;18.60;99.90
49503;DHT22;35409;48.776;9.204;2023-07-29T07:53:17;18.60;99.90
49503;DHT22;35409;48.776;9.204;2023-07-29T07:55:42;18.70;99.90
49503;DHT22;35409;48.776;9.204;2023-07-29T07:58:08;18.70;99.90
49503;DHT22;35409;48.776;9.204;2023-07-29T08:00:34;18.80;99.90
49503;DHT22;35409;48.776;9.204;2023-07-29T08:02:59;18.80;99.90
49503;DHT22;35409;48.776;9.204;2023-07-29T08:05:25;18.80;99.90
49503;DHT22;35409;48.776;9.204;2023-07-29T08:07:50;18.90;99.90
49503;DHT22;35409;48.776;9.204;2023-07-29T08:10:16;18.90;99.90
49503;DHT22;35409;48.776;9.204;2023-07-29T08:12:41;19.10;99.90
49503;DHT22;35409;48.776;9.204;2023-07-29T08:15:07;19.20;99.90
49503;DHT22;35409;48.776;9.204;2023-07-29T08:17:33;19.30;99.90
49503;DHT22;35409;48.776;9.204;2023-07-29T08:19:58;19.40;99.90
49503;DHT22;35409;48.776;9.204;2023-07-29T08:22:24;19.50;99.90
49503;DHT22;35409;48.776;9.204;2023-07-29T08:24:50;19.70;99.90
49503;DHT22;35409;48.776;9.204;2023-07-29T08:27:15;19.90;99.90
49503;DHT22;35409;48.776;9.204;2023-07-29T08:29:41;20.00;99.90
49503;DHT22;35409;48.776;9.204;2023-07-29T08:32:07;20.10;99.90
49503;DHT22;35409;48.776;9.204;2023-07-29T08:34:32;20.20;99.90
49503;DHT22;35409;48.776;9.204;2023-07-29T08:36:58;20.30;99.90
49503;DHT22;35409;48.776;9.204;2023-07-29T08:39:25;20.40;99.90
49503;DHT22;35409;48.776;9.204;2023-07-29T08:41:57;20.50;99.90
49503;DHT22;35409;48.776;9.204;2023-07-29T08:44:34;20.60;99.90
49503;DHT22;35409;48.776;9.204;2023-07-29T08:47:01;20.70;99.90
49503;DHT22;35409;48.776;9.204;2023-07-29T08:49:26;20.80;99.90
49503;DHT22;35409;48.776;9.204;2023-07-29T08:51:54;20.80;99.90
49503;DHT22;35409;48.776;9.204;2023-07-29T08:54:20;20.90;99.90
49503;DHT22;35409;48.776;9.204;2023-07-29T08:56:45;21.00;99.90
49503;DHT22;35409;48.776;9.204;2023-07-29T08:59:12;21.10;99.90
49503;DHT22;35409;48.776;9.204;2023-07-29T09:01:39;21.30;99.90
49503;DHT22;35409;48.776;9.204;2023-07-29T09:04:04;21.60;99.90
49503;DHT22;35409;48.776;9.204;2023-07-29T09:06:31;21.80;99.90
49503;DHT22;35409;48.776;9.204;2023-07-29T09:08:58;22.20;99.90
49503;DHT22;35409;48.776;9.204;2023-07-29T09:11:24;22.40;99.90
49503;DHT22;35409;48.776;9.204;2023-07-29T09:13:50;22.70;99.90
49503;DHT22;35409;48.776;9.204;2023-07-29T09:16:16;22.90;99.90
49503;DHT22;35409;48.776;9.204;2023-07-29T09:18:42;23.00;99.90
49503;DHT22;35409;48.776;9.204;2023-07-29T09:21:07;23.00;99.90
49503;DHT22;35409;48.776;9.204;2023-07-29T09:23:41;23.10;99.90
49503;DHT22;35409;48.776;9.204;2023-07-29T09:26:07;23.10;99.90
49503;DHT22;35409;48.776;9.204;2023-07-29T09:28:37;23.10;99.90
49503;DHT22;35409;48.776;9.204;2023-07-29T09:31:02;23.20;99.90
49503;DHT22;35409;48.776;9.204;2023-07-29T09:33:29;23.30;99.90
49503;DHT22;35409;48.776;9.204;2023-07-29T09:35:56;23.30;99.90
49503;DHT22;35409;48.776;9.204;2023-07-29T09:38:28;23.40;99.90
49503;DHT22;35409;48.776;9.204;2023-07-29T09:40:56;23.60;99.90
49503;DHT22;35409;48.776;9.204;2023-07-29T09:43:29;23.70;99.90
49503;DHT22;35409;48.776;9.204;2023-07-29T09:45:54;23.90;99.90
49503;DHT22;35409;48.776;9.204;2023-07-29T09:48:23;24.00;99.90
49503;DHT22;35409;48.776;9.204;2023-07-29T09:50:48;24.30;99.90
49503;DHT22;35409;48.776;9.204;2023-07-29T09:53:14;24.30;99.90
49503;DHT22;35409;48.776;9.204;2023-07-29T09:55:46;24.40;99.90
49503;DHT22;35409;48.776;9.204;2023-07-29T09:58:12;24.50;99.90
49503;DHT22;35409;48.776;9.204;2023-07-29T10:00:38;24.50;99.90
49503;DHT22;35409;48.776;9.204;2023-07-29T10:03:06;24.60;99.90
49503;DHT22;35409;48.776;9.204;2023-07-29T10:05:32;24.80;99.90
49503;DHT22;35409;48.776;9.204;2023-07-29T10:08:00;25.00;99.90
49503;DHT22;35409;48.776;9.204;2023-07-29T10:10:27;25.20;99.90
49503;DHT22;35409;48.776;9.204;2023-07-29T10:12:54;25.60;99.90
49503;DHT22;35409;48.776;9.204;2023-07-29T10:15:20;25.70;99.90
49503;DHT22;35409;48.776;9.204;2023-07-29T10:17:46;25.80;99.90
49503;DHT22;35409;48.776;9.204;2023-07-29T10:20:13;25.70;99.90
49503;DHT22;35409;48.776;9.204;2023-07-29T10:22:41;25.60;99.90
49503;DHT22;35409;48.776;9.204;2023-07-29T10:25:11;25.60;99.90
49503;DHT22;35409;48.776;9.204;2023-07-29T10:27:43;25.70;99.90
49503;DHT22;35409;48.776;9.204;2023-07-29T10:30:11;25.60;99.90
49503;DHT22;35409;48.776;9.204;2023-07-29T10:32:38;25.50;99.90
49503;DHT22;35409;48.776;9.204;2023-07-29T10:35:04;25.60;99.90
49503;DHT22;35409;48.776;9.204;2023-07-29T10:37:30;25.60;99.90
49503;DHT22;35409;48.776;9.204;2023-07-29T10:39:56;25.50;99.90
49503;DHT22;35409;48.776;9.204;2023-07-29T10:42:22;25.40;99.90
49503;DHT22;35409;48.776;9.204;2023-07-29T10:44:49;25.30;99.90
49503;DHT22;35409;48.776;9.204;2023-07-29T10:47:17;25.10;99.90
49503;DHT22;35409;48.776;9.204;2023-07-29T10:49:43;25.00;99.90
49503;DHT22;35409;48.776;9.204;2023-07-29T10:52:16;24.70;99.90
49503;DHT22;35409;48.776;9.204;2023-07-29T10:54:44;24.40;99.90
49503;DHT22;35409;48.776;9.204;2023-07-29T10:57:37;24.20;99.90
49503;DHT22;35409;48.776;9.204;2023-07-29T11:00:04;24.30;99.90
49503;DHT22;35409;48.776;9.204;2023-07-29T11:02:31;24.60;99.90
49503;DHT22;35409;48.776;9.204;2023-07-29T11:04:58;25.00;99.90
49503;DHT22;35409;48.776;9.204;2023-07-29T11:07:25;25.20;99.90
49503;DHT22;35409;48.776;9.204;2023-07-29T11:09:59;25.40;99.90
49503;DHT22;35409;48.776;9.204;2023-07-29T11:12:44;25.60;99.90
49503;DHT22;35409;48.776;9.204;2023-07-29T11:15:24;25.80;99.90
49503;DHT22;35409;48.776;9.204;2023-07-29T11:17:56;26.20;99.90
49503;DHT22;35409;48.776;9.204;2023-07-29T11:20:24;26.60;99.90
49503;DHT22;35409;48.776;9.204;2023-07-29T11:22:51;26.70;99.90
49503;DHT22;35409;48.776;9.204;2023-07-29T11:25:18;26.60;99.90
49503;DHT22;35409;48.776;9.204;2023-07-29T11:27:44;26.70;99.90
49503;DHT22;35409;48.776;9.204;2023-07-29T11:30:11;26.80;99.90
49503;DHT22;35409;48.776;9.204;2023-07-29T11:32:38;26.90;99.90
49503;DHT22;35409;48.776;9.204;2023-07-29T11:35:16;26.90;99.90
49503;DHT22;35409;48.776;9.204;2023-07-29T11:37:43;26.80;99.90
49503;DHT22;35409;48.776;9.204;2023-07-29T11:40:14;26.80;99.90
49503;DHT22;35409;48.776;9.204;2023-07-29T11:42:40;26.80;99.90
49503;DHT22;35409;48.776;9.204;2023-07-29T11:45:06;26.70;99.90
49503;DHT22;35409;48.776;9.204;2023-07-29T11:47:33;26.60;99.90
49503;DHT22;35409;48.776;9.204;2023-07-29T11:50:06;26.70;99.90
49503;DHT22;35409;48.776;9.204;2023-07-29T11:52:33;26.80;99.90
49503;DHT22;35409;48.776;9.204;2023-07-29T11:55:00;26.90;99.90
49503;DHT22;35409;48.776;9.204;2023-07-29T11:57:26;27.00;99.90
49503;DHT22;35409;48.776;9.204;2023-07-29T11:59:52;27.20;99.90
49503;DHT22;35409;48.776;9.204;2023-07-29T12:02:20;27.30;99.90
49503;DHT22;35409;48.776;9.204;2023-07-29T12:04:47;27.60;99.90
49503;DHT22;35409;48.776;9.204;2023-07-29T12:07:14;27.90;99.90
49503;DHT22;35409;48.776;9.204;2023-07-29T12:09:41;27.90;99.90
49503;DHT22;35409;48.776;9.204;2023-07-29T12:12:07;27.90;99.90
49503;DHT22;35409;48.776;9.204;2023-07-29T12:14:34;28.00;99.90
49503;DHT22;35409;48.776;9.204;2023-07-29T12:17:04;28.10;99.90
49503;DHT22;35409;48.776;9.204;2023-07-29T12:19:36;28.30;99.90
49503;DHT22;35409;48.776;9.204;2023-07-29T12:22:03;28.40;99.90
49503;DHT22;35409;48.776;9.204;2023-07-29T12:24:30;28.40;99.90
49503;DHT22;35409;48.776;9.204;2023-07-29T12:26:56;28.30;99.90
49503;DHT22;35409;48.776;9.204;2023-07-29T12:29:22;28.10;99.90
49503;DHT22;35409;48.776;9.204;2023-07-29T12:31:49;28.10;99.90
49503;DHT22;35409;48.776;9.204;2023-07-29T12:34:21;28.30;99.90
49503;DHT22;35409;48.776;9.204;2023-07-29T12:36:50;28.80;99.90
49503;DHT22;35409;48.776;9.204;2023-07-29T12:39:21;29.30;99.10
49503;DHT22;35409;48.776;9.204;2023-07-29T12:41:51;29.40;98.90
49503;DHT22;35409;48.776;9.204;2023-07-29T12:44:17;29.70;98.00
49503;DHT22;35409;48.776;9.204;2023-07-29T12:46:43;30.00;96.60
49503;DHT22;35409;48.776;9.204;2023-07-29T12:49:09;30.10;93.50
49503;DHT22;35409;48.776;9.204;2023-07-29T12:51:34;29.70;93.30
49503;DHT22;35409;48.776;9.204;2023-07-29T12:54:01;29.40;93.20
49503;DHT22;35409;48.776;9.204;2023-07-29T12:56:28;29.20;93.30
49503;DHT22;35409;48.776;9.204;2023-07-29T12:58:55;29.00;93.60
49503;DHT22;35409;48.776;9.204;2023-07-29T13:01:20;28.80;93.30
49503;DHT22;35409;48.776;9.204;2023-07-29T13:03:47;28.70;94.40
49503;DHT22;35409;48.776;9.204;2023-07-29T13:06:12;28.80;93.30
49503;DHT22;35409;48.776;9.204;2023-07-29T13:08:38;28.60;93.40
49503;DHT22;35409;48.776;9.204;2023-07-29T13:11:04;28.60;93.90
49503;DHT22;35409;48.776;9.204;2023-07-29T13:13:30;28.70;93.90
49503;DHT22;35409;48.776;9.204;2023-07-29T13:15:57;28.80;93.80
49503;DHT22;35409;48.776;9.204;2023-07-29T13:18:22;28.80;93.60
49503;DHT22;35409;48.776;9.204;2023-07-29T13:20:48;29.00;93.80
49503;DHT22;35409;48.776;9.204;2023-07-29T13:23:15;28.90;93.30
49503;DHT22;35409;48.776;9.204;2023-07-29T13:25:41;28.70;93.10
49503;DHT22;35409;48.776;9.204;2023-07-29T13:28:07;28.50;93.90
49503;DHT22;35409;48.776;9.204;2023-07-29T13:30:33;28.60;93.20
49503;DHT22;35409;48.776;9.204;2023-07-29T13:32:58;28.50;93.70
49503;DHT22;35409;48.776;9.204;2023-07-29T13:35:24;28.40;93.90
49503;DHT22;35409;48.776;9.204;2023-07-29T13:37:50;28.60;93.50
49503;DHT22;35409;48.776;9.204;2023-07-29T13:40:15;28.50;93.80
49503;DHT22;35409;48.776;9.204;2023-07-29T13:42:41;28.30;93.40
49503;DHT22;35409;48.776;9.204;2023-07-29T13:45:07;28.30;93.40
49503;DHT22;35409;48.776;9.204;2023-07-29T13:47:33;28.20;93.60
49503;DHT22;35409;48.776;9.204;2023-07-29T13:49:59;28.30;93.90
49503;DHT22;35409;48.776;9.204;2023-07-29T13:52:25;28.30;93.40
49503;DHT22;35409;48.776;9.204;2023-07-29T13:54:50;28.40;93.40
49503;DHT22;35409;48.776;9.204;2023-07-29T13:57:16;28.30;93.30
49503;DHT22;35409;48.776;9.204;2023-07-29T13:59:41;28.30;93.50
49503;DHT22;35409;48.776;9.204;2023-07-29T14:02:07;28.20;93.70
49503;DHT22;35409;48.776;9.204;2023-07-29T14:04:33;28.30;93.20
49503;DHT22;35409;48.776;9.204;2023-07-29T14:06:59;28.20;92.80
49503;DHT22;35409;48.776;9.204;2023-07-29T14:09:26;28.20;93.40
49503;DHT22;35409;48.776;9.204;2023-07-29T14:11:52;28.20;93.50
49503;DHT22;35409;48.776;9.204;2023-07-29T14:14:17;28.30;93.40
49503;DHT22;35409;48.776;9.204;2023-07-29T14:16:43;28.40;93.20
49503;DHT22;35409;48.776;9.204;2023-07-29T14:19:09;28.70;92.80
49503;DHT22;35409;48.776;9.204;2023-07-29T14:21:34;28.80;92.90
49503;DHT22;35409;48.776;9.204;2023-07-29T14:24:00;28.90;92.40
49503;DHT22;35409;48.776;9.204;2023-07-29T14:26:25;28.80;92.30
49503;DHT22;35409;48.776;9.204;2023-07-29T14:28:51;28.90;92.40
49503;DHT22;35409;48.776;9.204;2023-07-29T14:31:17;28.80;92.60
49503;DHT22;35409;48.776;9.204;2023-07-29T14:33:43;28.60;92.50
49503;DHT22;35409;48.776;9.204;2023-07-29T14:36:09;28.40;92.70
49503;DHT22;35409;48.776;9.204;2023-07-29T14:38:35;28.20;92.80
49503;DHT22;35409;48.776;9.204;2023-07-29T14:41:02;28.10;92.90
49503;DHT22;35409;48.776;9.204;2023-07-29T14:43:27;27.80;93.20
49503;DHT22;35409;48.776;9.204;2023-07-29T14:45:53;27.70;93.60
49503;DHT22;35409;48.776;9.204;2023-07-29T14:48:19;27.50;93.60
49503;DHT22;35409;48.776;9.204;2023-07-29T14:50:44;27.30;93.90
49503;DHT22;35409;48.776;9.204;2023-07-29T14:53:12;27.10;94.10
49503;DHT22;35409;48.776;9.204;2023-07-29T14:55:38;26.90;94.40
49503;DHT22;35409;48.776;9.204;2023-07-29T14:58:04;26.80;94.60
49503;DHT22;35409;48.776;9.204;2023-07-29T15:00:29;26.70;95.00
49503;DHT22;35409;48.776;9.204;2023-07-29T15:02:55;26.80;95.30
49503;DHT22;35409;48.776;9.204;2023-07-29T15:05:20;26.80;95.10
49503;DHT22;35409;48.776;9.204;2023-07-29T15:07:47;27.00;95.10
49503;DHT22;35409;48.776;9.204;2023-07-29T15:10:16;27.20;95.30
49503;DHT22;35409;48.776;9.204;2023-07-29T15:12:42;27.30;94.90
49503;DHT22;35409;48.776;9.204;2023-07-29T15:15:08;27.50;95.00
49503;DHT22;35409;48.776;9.204;2023-07-29T15:17:34;27.70;94.70
49503;DHT22;35409;48.776;9.204;2023-07-29T15:19:59;27.90;94.70
49503;DHT22;35409;48.776;9.204;2023-07-29T15:22:25;27.90;94.40
49503;DHT22;35409;48.776;9.204;2023-07-29T15:24:51;28.00;94.50
49503;DHT22;35409;48.776;9.204;2023-07-29T15:27:16;28.00;94.20